Flight Track Log - Related Links

Times and Time Zones

All times are in EDT time to prevent confusion due to time zone crossing. See the N777NC flight status page for this flight to view local times or setup timezone preferences in your user account.

Time Position Orientation Groundspeed Altitude Reporting Facility
EDT Latitude Longitude Course Direction KTS MPH feet Rate Location/Type
Thu 02:47:47 PM 33.6722 -84.5381 12° North 449 517 3,800  Level Atlanta Center
Thu 02:48:53 PM 33.7333 -84.6000 320° Northwest 282 325 6,400 2,400 Climbing Atlanta TRACON
Thu 02:49:47 PM 33.8000 -84.6167 348° North 288 331 8,600 2,000 Climbing Atlanta TRACON
Thu 02:50:00 PM 34.1323 -84.3097 North  Level FlightAware Approximate
Thu 02:51:00 PM 34.2572 -84.2852 12° North  Level FlightAware Approximate
Thu 02:51:47 PM 33.9414 -84.5344 26° Northeast 304 350 12,200  Level Atlanta Center
Thu 02:52:00 PM 34.3811 -84.2532 12° North  Level FlightAware Approximate
Thu 02:52:47 PM 34.0169 -84.4622 38° Northeast 328 377 13,600  Level Atlanta Center
Thu 02:53:00 PM 34.5051 -84.2210 12° North  Level FlightAware Approximate
Thu 02:53:47 PM 34.0900 -84.3925 38° Northeast 334 384 15,900  Level Atlanta Center
Thu 02:54:47 PM 34.1781 -84.3175 35° Northeast 365 420 17,300 1,350 Climbing Atlanta Center
Thu 02:55:47 PM 34.2803 -84.2550 27° Northeast 374 430 18,600 1,350 Climbing Atlanta Center
Thu 02:56:47 PM 34.3911 -84.2478 North 374 430 20,000 1,350 Climbing Atlanta Center
Thu 02:57:47 PM 34.5017 -84.2353 North 393 452 21,300 1,300 Climbing Atlanta Center
Thu 02:58:47 PM 34.6186 -84.2156 North 407 468 22,600 1,150 Climbing Atlanta Center
Thu 02:59:47 PM 34.7186 -84.1928 11° North 416 479 23,600 1,050 Climbing Atlanta Center
Thu 03:00:47 PM 34.8356 -84.1525 16° North 416 479 24,700 900 Climbing Atlanta Center
Thu 03:01:47 PM 34.9547 -84.1172 14° North 416 479 25,400 850 Climbing Atlanta Center
Thu 03:02:47 PM 35.0756 -84.0894 11° North 429 494 26,400 900 Climbing Atlanta Center
Thu 03:03:47 PM 35.1967 -84.0642 10° North 434 499 27,200 744 Climbing Atlanta Center
Thu 03:04:48 PM 35.3178 -84.0336 12° North 434 499 27,900 750 Climbing Atlanta Center
Thu 03:05:47 PM 35.4408 -84.0056 11° North 439 505 28,700 555 Climbing Atlanta Center
Thu 03:06:47 PM 35.5681 -83.9825 North 450 518 29,000 149 Climbing Atlanta Center
Thu 03:07:48 PM 35.6953 -83.9544 10° North 456 525 29,000  Level Atlanta Center
Thu 03:08:48 PM 35.8225 -83.9183 13° North 466 536 29,000  Level Atlanta Center
Thu 03:09:47 PM 35.9456 -83.8592 21° North 471 542 29,000  Level Atlanta Center
Thu 03:10:47 PM 36.0683 -83.7844 26° Northeast 478 550 29,000  Level Atlanta Center
Thu 03:11:39 PM 36.1669 -83.7322 23° Northeast 480 552 29,000  Level Indianapolis Center
Thu 03:12:41 PM 36.3106 -83.6431 27° Northeast 482 555 29,000  Level Indianapolis Center
Thu 03:13:43 PM 36.4278 -83.5586 30° Northeast 489 563 29,000  Level Indianapolis Center
Thu 03:14:45 PM 36.5472 -83.4775 29° Northeast 494 568 29,000  Level Indianapolis Center
Thu 03:15:47 PM 36.6661 -83.3919 30° Northeast 490 564 29,000  Level Indianapolis Center
Thu 03:16:50 PM 36.7842 -83.3011 32° Northeast 494 568 29,000  Level Indianapolis Center
Thu 03:17:52 PM 36.9275 -83.2050 28° Northeast 495 570 29,000  Level Indianapolis Center
Thu 03:18:54 PM 37.0494 -83.1158 30° Northeast 496 571 29,000  Level Indianapolis Center
Thu 03:19:56 PM 37.1742 -83.0375 27° Northeast 494 568 29,000  Level Indianapolis Center
Thu 03:20:58 PM 37.2978 -82.9586 27° Northeast 492 566 29,000  Level Indianapolis Center
Thu 03:22:00 PM 37.4231 -82.8819 26° Northeast 489 563 29,000  Level Indianapolis Center
Thu 03:23:02 PM 37.5503 -82.8092 24° Northeast 496 571 29,000  Level Indianapolis Center
Thu 03:24:04 PM 37.6775 -82.7364 24° Northeast 498 573 29,000  Level Indianapolis Center
Thu 03:25:06 PM 37.8261 -82.6536 24° Northeast 499 574 29,000  Level Indianapolis Center
Thu 03:26:08 PM 37.9553 -82.5897 21° North 495 570 29,000  Level Indianapolis Center
Thu 03:27:10 PM 38.0900 -82.5422 16° North 500 575 29,000  Level Indianapolis Center
Thu 03:28:12 PM 38.2236 -82.4994 14° North 495 570 29,000  Level Indianapolis Center
Thu 03:29:14 PM 38.3694 -82.4536 14° North 501 577 29,000  Level Indianapolis Center
Thu 03:30:16 PM 38.5072 -82.4219 10° North 498 573 29,000  Level Indianapolis Center
Thu 03:31:18 PM 38.6461 -82.3939 North 500 575 29,000  Level Indianapolis Center
Thu 03:32:20 PM 38.7850 -82.3781 North 497 572 29,000  Level Indianapolis Center
Thu 03:33:22 PM 38.9244 -82.3672 North 497 572 29,000  Level Indianapolis Center
Thu 03:34:24 PM 39.0642 -82.3444 North 500 575 29,000  Level Indianapolis Center
Thu 03:35:27 PM 39.2342 -82.3217 North 508 585 29,000  Level Indianapolis Center
Thu 03:36:29 PM 39.3733 -82.3183 North 501 577 29,000 -48 Level Indianapolis Center
Thu 03:37:31 PM 39.5008 -82.3072 North 498 573 28,900 -48 Descending Indianapolis Center
Thu 03:38:33 PM 39.6619 -82.2725 North 502 578 28,900 -387 Level Indianapolis Center
Thu 03:39:35 PM 39.7994 -82.2506 North 493 567 28,100 -2,274 Descending Indianapolis Center
Thu 03:40:37 PM 39.9314 -82.2303 North 477 549 24,200 -3,097 Descending Indianapolis Center
Thu 03:41:39 PM 40.0594 -82.2061 North 462 532 21,700 -2,323 Descending Indianapolis Center
Thu 03:42:41 PM 40.1783 -82.1875 North 430 495 19,400 -1,935 Descending Indianapolis Center
Thu 03:43:43 PM 40.2847 -82.1619 10° North 400 460 17,700 -1,790 Descending Indianapolis Center
Thu 03:44:45 PM 40.4014 -82.1256 13° North 366 421 15,700 -1,355 Descending Indianapolis Center
Thu 03:45:47 PM 40.4975 -82.0944 14° North 354 407 14,900 -339 Descending Indianapolis Center
Thu 03:46:49 PM 40.5825 -82.0139 36° Northeast 371 427 15,000 63 Climbing Indianapolis Center
Thu 03:47:23 PM 40.6258 -81.9700 38° Northeast 363 418 15,000 -574 Level Cleveland Center
Thu 03:48:23 PM 40.7103 -81.8786 39° Northeast 382 440 14,100 -1,187 Descending Cleveland Center
Thu 03:48:54 PM 40.7567 -81.8303 38° Northeast 382 440 13,200 -1,761 Descending Cleveland Center
Thu 03:49:55 PM 40.8428 -81.7550 33° Northeast 361 415 11,400 -1,475 Descending Cleveland Center
Thu 03:50:56 PM 40.9322 -81.7731 351° North 333 383 10,200 -694 Descending Cleveland Center
Thu 03:51:56 PM 41.0064 -81.8597 319° Northwest 323 372 10,000 -99 Descending Cleveland Center
Thu 03:52:57 PM 41.0722 -81.9356 319° Northwest 319 367 10,000 -590 Level Cleveland Center
Thu 03:53:58 PM 41.1342 -81.9975 323° Northwest 269 310 8,800 -1,426 Descending Cleveland Center
Thu 03:54:59 PM 41.1981 -82.0483 329° Northwest 271 312 7,100 -1,574 Descending Cleveland Center
Thu 03:56:00 PM 41.2692 -82.0364 North 265 305 5,600 -1,488 Descending Cleveland Center
Thu 03:57:00 PM 41.3217 -81.9933 32° Northeast 212 244 4,100 -1,500 Descending Cleveland Center

Login

Don't have an account? Register now (free) for customized features, flight alerts, and more!